Hlavní strana
METAR-TAF:

METAR-TAF

Letiště :

Cartersville Airport

Cartersville, Georgie, Spojené státy americké

zeměpisná šířka: 34-07-42N, zeměpisná délka: 084-50-50W, výška: 233 m

Aktuální stav počasí

Zpráva byla vytvořena před 35 minutami, v 22:53 UTC
Bezvětří
Teplota 8°C
Vlhkost vzduchu 66%
Tlak 1017 hPa
Viditelnost: 16.1 km
Zataženo ve výšce 7000 ft

METAR: KVPC 262253Z AUTO 00000KT 10SM OVC070 08/02 A3004 RMK AO2 SLP172 T00830017

Čas: 18:28 (23:28 UTC)


TAF: chybějící

Stav a předpovědi počasí z více než 4 000 letišť (zprávy METAR a TAF).

Červené a žluté tečky na mapě představují dostupné meteorologické stanice.

Když kurzor umístíte na tečku, zobrazí se název stanice.

Pak kliknutím zobrazíte stav a předpověď počasí.

Chcete-li změnit mapu, kliknutím na zelené tlačítko se znaménkem +mapu přiblížíte, kliknutím na zelené tlačítko se znaménkem – mapu oddálíte a kliknutím na zelené šipky přejdete na sousední mapy.


METAR-TAF: